sensor_id;sensor_type;location;lat;lon;timestamp;P1;durP1;ratioP1;P2;durP2;ratioP2
21905;SDS011;11117;48.644;9.006;2023-04-08T00:00:22;37.77;;;17.70;;
21905;SDS011;11117;48.644;9.006;2023-04-08T00:02:48;42.57;;;19.10;;
21905;SDS011;11117;48.644;9.006;2023-04-08T00:05:13;37.13;;;18.83;;
21905;SDS011;11117;48.644;9.006;2023-04-08T00:07:39;39.00;;;19.37;;
21905;SDS011;11117;48.644;9.006;2023-04-08T00:10:04;36.00;;;18.83;;
21905;SDS011;11117;48.644;9.006;2023-04-08T00:12:31;41.80;;;19.17;;
21905;SDS011;11117;48.644;9.006;2023-04-08T00:14:56;40.07;;;20.03;;
21905;SDS011;11117;48.644;9.006;2023-04-08T00:17:22;42.10;;;19.40;;
21905;SDS011;11117;48.644;9.006;2023-04-08T00:19:47;42.87;;;20.77;;
21905;SDS011;11117;48.644;9.006;2023-04-08T00:22:13;42.07;;;20.03;;
21905;SDS011;11117;48.644;9.006;2023-04-08T00:24:39;40.77;;;20.07;;
21905;SDS011;11117;48.644;9.006;2023-04-08T00:27:04;42.27;;;20.83;;
21905;SDS011;11117;48.644;9.006;2023-04-08T00:29:30;40.00;;;21.63;;
21905;SDS011;11117;48.644;9.006;2023-04-08T00:31:56;41.30;;;20.40;;
21905;SDS011;11117;48.644;9.006;2023-04-08T00:34:22;40.00;;;19.77;;
21905;SDS011;11117;48.644;9.006;2023-04-08T00:36:47;39.67;;;18.77;;
21905;SDS011;11117;48.644;9.006;2023-04-08T00:39:14;36.97;;;20.80;;
21905;SDS011;11117;48.644;9.006;2023-04-08T00:41:40;32.10;;;18.20;;
21905;SDS011;11117;48.644;9.006;2023-04-08T00:44:05;35.67;;;19.97;;
21905;SDS011;11117;48.644;9.006;2023-04-08T00:46:35;39.80;;;20.77;;
21905;SDS011;11117;48.644;9.006;2023-04-08T00:49:02;35.10;;;19.33;;
21905;SDS011;11117;48.644;9.006;2023-04-08T00:51:28;35.67;;;20.83;;
21905;SDS011;11117;48.644;9.006;2023-04-08T00:53:54;40.97;;;21.50;;
21905;SDS011;11117;48.644;9.006;2023-04-08T00:56:20;25.93;;;13.83;;
21905;SDS011;11117;48.644;9.006;2023-04-08T00:58:47;36.83;;;20.23;;
21905;SDS011;11117;48.644;9.006;2023-04-08T01:01:16;34.60;;;19.10;;
21905;SDS011;11117;48.644;9.006;2023-04-08T01:03:57;32.60;;;16.07;;
21905;SDS011;11117;48.644;9.006;2023-04-08T01:06:48;31.77;;;18.50;;
21905;SDS011;11117;48.644;9.006;2023-04-08T01:09:23;33.73;;;19.77;;
21905;SDS011;11117;48.644;9.006;2023-04-08T01:11:53;33.50;;;18.93;;
21905;SDS011;11117;48.644;9.006;2023-04-08T01:14:22;28.67;;;17.63;;
21905;SDS011;11117;48.644;9.006;2023-04-08T01:16:50;28.83;;;17.00;;
21905;SDS011;11117;48.644;9.006;2023-04-08T01:19:30;31.70;;;19.20;;
21905;SDS011;11117;48.644;9.006;2023-04-08T01:22:00;29.20;;;16.73;;
21905;SDS011;11117;48.644;9.006;2023-04-08T01:24:47;29.50;;;16.97;;
21905;SDS011;11117;48.644;9.006;2023-04-08T01:27:16;26.17;;;16.27;;
21905;SDS011;11117;48.644;9.006;2023-04-08T01:29:43;30.17;;;17.70;;
21905;SDS011;11117;48.644;9.006;2023-04-08T01:32:11;31.33;;;18.77;;
21905;SDS011;11117;48.644;9.006;2023-04-08T01:34:38;29.97;;;18.03;;
21905;SDS011;11117;48.644;9.006;2023-04-08T01:37:05;33.13;;;18.77;;
21905;SDS011;11117;48.644;9.006;2023-04-08T01:39:32;31.23;;;18.77;;
21905;SDS011;11117;48.644;9.006;2023-04-08T01:41:59;34.67;;;19.33;;
21905;SDS011;11117;48.644;9.006;2023-04-08T01:44:25;33.10;;;19.67;;
21905;SDS011;11117;48.644;9.006;2023-04-08T01:46:52;33.03;;;20.03;;
21905;SDS011;11117;48.644;9.006;2023-04-08T01:49:18;37.43;;;19.20;;
21905;SDS011;11117;48.644;9.006;2023-04-08T01:51:46;30.27;;;18.90;;
21905;SDS011;11117;48.644;9.006;2023-04-08T01:54:14;31.13;;;19.03;;
21905;SDS011;11117;48.644;9.006;2023-04-08T01:56:40;32.50;;;19.13;;
21905;SDS011;11117;48.644;9.006;2023-04-08T01:59:09;36.93;;;20.23;;
21905;SDS011;11117;48.644;9.006;2023-04-08T02:01:37;37.40;;;21.37;;
21905;SDS011;11117;48.644;9.006;2023-04-08T02:04:03;35.93;;;20.93;;
21905;SDS011;11117;48.644;9.006;2023-04-08T02:06:28;36.80;;;21.17;;
21905;SDS011;11117;48.644;9.006;2023-04-08T02:08:55;34.53;;;18.97;;
21905;SDS011;11117;48.644;9.006;2023-04-08T02:11:21;32.50;;;17.77;;
21905;SDS011;11117;48.644;9.006;2023-04-08T02:13:47;36.20;;;19.37;;
21905;SDS011;11117;48.644;9.006;2023-04-08T02:16:22;35.77;;;20.37;;
21905;SDS011;11117;48.644;9.006;2023-04-08T02:19:19;38.20;;;21.17;;
21905;SDS011;11117;48.644;9.006;2023-04-08T02:21:54;38.17;;;22.17;;
21905;SDS011;11117;48.644;9.006;2023-04-08T02:24:26;36.53;;;21.87;;
21905;SDS011;11117;48.644;9.006;2023-04-08T02:26:53;39.27;;;21.63;;
21905;SDS011;11117;48.644;9.006;2023-04-08T02:29:20;37.60;;;22.20;;
21905;SDS011;11117;48.644;9.006;2023-04-08T02:31:49;35.83;;;20.60;;
21905;SDS011;11117;48.644;9.006;2023-04-08T02:34:16;39.13;;;21.87;;
21905;SDS011;11117;48.644;9.006;2023-04-08T02:36:44;46.63;;;23.83;;
21905;SDS011;11117;48.644;9.006;2023-04-08T02:39:11;44.97;;;23.47;;
21905;SDS011;11117;48.644;9.006;2023-04-08T02:41:37;46.77;;;24.47;;
21905;SDS011;11117;48.644;9.006;2023-04-08T02:44:03;41.73;;;22.40;;
21905;SDS011;11117;48.644;9.006;2023-04-08T02:46:28;42.70;;;23.43;;
21905;SDS011;11117;48.644;9.006;2023-04-08T02:48:54;42.90;;;21.77;;
21905;SDS011;11117;48.644;9.006;2023-04-08T02:51:20;42.30;;;21.47;;
21905;SDS011;11117;48.644;9.006;2023-04-08T02:53:46;34.27;;;17.83;;
21905;SDS011;11117;48.644;9.006;2023-04-08T02:56:11;35.83;;;19.10;;
21905;SDS011;11117;48.644;9.006;2023-04-08T02:58:37;39.10;;;21.37;;
21905;SDS011;11117;48.644;9.006;2023-04-08T03:01:02;39.77;;;21.43;;
21905;SDS011;11117;48.644;9.006;2023-04-08T03:03:28;42.13;;;21.50;;
21905;SDS011;11117;48.644;9.006;2023-04-08T03:05:54;41.27;;;20.00;;
21905;SDS011;11117;48.644;9.006;2023-04-08T03:08:20;43.27;;;21.87;;
21905;SDS011;11117;48.644;9.006;2023-04-08T03:10:46;44.93;;;21.40;;
21905;SDS011;11117;48.644;9.006;2023-04-08T03:13:12;43.80;;;21.97;;
21905;SDS011;11117;48.644;9.006;2023-04-08T03:15:37;45.40;;;22.07;;
21905;SDS011;11117;48.644;9.006;2023-04-08T03:18:03;41.00;;;20.80;;
21905;SDS011;11117;48.644;9.006;2023-04-08T03:20:29;42.97;;;22.10;;
21905;SDS011;11117;48.644;9.006;2023-04-08T03:22:54;47.73;;;22.57;;
21905;SDS011;11117;48.644;9.006;2023-04-08T03:25:20;40.57;;;18.43;;
21905;SDS011;11117;48.644;9.006;2023-04-08T03:27:45;43.10;;;21.10;;
21905;SDS011;11117;48.644;9.006;2023-04-08T03:30:11;40.33;;;19.83;;
21905;SDS011;11117;48.644;9.006;2023-04-08T03:32:36;28.03;;;12.93;;
21905;SDS011;11117;48.644;9.006;2023-04-08T03:35:02;41.13;;;21.20;;
21905;SDS011;11117;48.644;9.006;2023-04-08T03:37:29;38.37;;;20.20;;
21905;SDS011;11117;48.644;9.006;2023-04-08T03:39:54;44.27;;;21.97;;
21905;SDS011;11117;48.644;9.006;2023-04-08T03:42:20;39.97;;;21.27;;
21905;SDS011;11117;48.644;9.006;2023-04-08T03:44:45;44.33;;;21.23;;
21905;SDS011;11117;48.644;9.006;2023-04-08T03:47:11;45.13;;;21.33;;
21905;SDS011;11117;48.644;9.006;2023-04-08T03:49:36;42.87;;;21.13;;
21905;SDS011;11117;48.644;9.006;2023-04-08T03:52:02;29.93;;;14.93;;
21905;SDS011;11117;48.644;9.006;2023-04-08T03:54:28;34.00;;;16.40;;
21905;SDS011;11117;48.644;9.006;2023-04-08T03:56:53;35.20;;;17.37;;
21905;SDS011;11117;48.644;9.006;2023-04-08T03:59:19;33.03;;;17.30;;
21905;SDS011;11117;48.644;9.006;2023-04-08T04:01:45;30.10;;;15.53;;
21905;SDS011;11117;48.644;9.006;2023-04-08T04:04:12;32.50;;;17.00;;
21905;SDS011;11117;48.644;9.006;2023-04-08T04:06:37;33.33;;;17.93;;
21905;SDS011;11117;48.644;9.006;2023-04-08T04:09:03;33.30;;;17.43;;
21905;SDS011;11117;48.644;9.006;2023-04-08T04:11:29;34.07;;;16.90;;
21905;SDS011;11117;48.644;9.006;2023-04-08T04:13:54;31.10;;;17.03;;
21905;SDS011;11117;48.644;9.006;2023-04-08T04:16:20;32.27;;;18.27;;
21905;SDS011;11117;48.644;9.006;2023-04-08T04:18:45;33.73;;;17.63;;
21905;SDS011;11117;48.644;9.006;2023-04-08T04:21:11;34.10;;;17.60;;
21905;SDS011;11117;48.644;9.006;2023-04-08T04:23:36;36.23;;;18.17;;
21905;SDS011;11117;48.644;9.006;2023-04-08T04:26:08;32.50;;;18.03;;
21905;SDS011;11117;48.644;9.006;2023-04-08T04:28:34;32.27;;;17.60;;
21905;SDS011;11117;48.644;9.006;2023-04-08T04:31:00;32.37;;;18.00;;
21905;SDS011;11117;48.644;9.006;2023-04-08T04:33:26;33.93;;;17.63;;
21905;SDS011;11117;48.644;9.006;2023-04-08T04:35:51;31.57;;;17.47;;
21905;SDS011;11117;48.644;9.006;2023-04-08T04:38:17;31.63;;;17.83;;
21905;SDS011;11117;48.644;9.006;2023-04-08T04:40:42;40.97;;;21.47;;
21905;SDS011;11117;48.644;9.006;2023-04-08T04:43:08;40.50;;;22.33;;
21905;SDS011;11117;48.644;9.006;2023-04-08T04:45:34;32.10;;;18.13;;
21905;SDS011;11117;48.644;9.006;2023-04-08T04:47:59;30.57;;;16.67;;
21905;SDS011;11117;48.644;9.006;2023-04-08T04:50:25;29.07;;;16.33;;
21905;SDS011;11117;48.644;9.006;2023-04-08T04:52:50;32.50;;;17.00;;
21905;SDS011;11117;48.644;9.006;2023-04-08T04:55:16;35.40;;;18.60;;
21905;SDS011;11117;48.644;9.006;2023-04-08T04:57:42;28.60;;;15.80;;
21905;SDS011;11117;48.644;9.006;2023-04-08T05:00:07;33.60;;;18.10;;
21905;SDS011;11117;48.644;9.006;2023-04-08T05:02:33;34.80;;;17.77;;
21905;SDS011;11117;48.644;9.006;2023-04-08T05:04:59;34.40;;;17.47;;
21905;SDS011;11117;48.644;9.006;2023-04-08T05:07:24;36.50;;;18.50;;
21905;SDS011;11117;48.644;9.006;2023-04-08T05:09:50;37.07;;;19.77;;
21905;SDS011;11117;48.644;9.006;2023-04-08T05:12:15;36.83;;;19.13;;
21905;SDS011;11117;48.644;9.006;2023-04-08T05:14:41;35.70;;;18.57;;
21905;SDS011;11117;48.644;9.006;2023-04-08T05:17:07;35.00;;;19.30;;
21905;SDS011;11117;48.644;9.006;2023-04-08T05:19:32;36.67;;;19.53;;
21905;SDS011;11117;48.644;9.006;2023-04-08T05:21:58;33.67;;;18.57;;
21905;SDS011;11117;48.644;9.006;2023-04-08T05:24:23;31.60;;;18.23;;
21905;SDS011;11117;48.644;9.006;2023-04-08T05:26:49;34.13;;;18.07;;
21905;SDS011;11117;48.644;9.006;2023-04-08T05:29:14;32.70;;;17.53;;
21905;SDS011;11117;48.644;9.006;2023-04-08T05:31:40;32.83;;;18.77;;
21905;SDS011;11117;48.644;9.006;2023-04-08T05:34:05;31.07;;;16.53;;
21905;SDS011;11117;48.644;9.006;2023-04-08T05:36:31;26.83;;;16.10;;
21905;SDS011;11117;48.644;9.006;2023-04-08T05:38:56;29.87;;;16.10;;
21905;SDS011;11117;48.644;9.006;2023-04-08T05:41:22;29.53;;;17.47;;
21905;SDS011;11117;48.644;9.006;2023-04-08T05:43:48;29.13;;;16.10;;
21905;SDS011;11117;48.644;9.006;2023-04-08T05:46:13;29.20;;;15.70;;
21905;SDS011;11117;48.644;9.006;2023-04-08T05:48:39;27.20;;;15.63;;
21905;SDS011;11117;48.644;9.006;2023-04-08T05:51:04;29.80;;;16.40;;
21905;SDS011;11117;48.644;9.006;2023-04-08T05:53:30;30.87;;;17.90;;
21905;SDS011;11117;48.644;9.006;2023-04-08T05:55:55;30.00;;;17.57;;
21905;SDS011;11117;48.644;9.006;2023-04-08T05:58:21;26.47;;;16.47;;
21905;SDS011;11117;48.644;9.006;2023-04-08T06:00:47;30.87;;;15.40;;
21905;SDS011;11117;48.644;9.006;2023-04-08T06:03:12;31.60;;;17.23;;
21905;SDS011;11117;48.644;9.006;2023-04-08T06:05:38;28.73;;;17.63;;
21905;SDS011;11117;48.644;9.006;2023-04-08T06:08:03;25.20;;;14.63;;
21905;SDS011;11117;48.644;9.006;2023-04-08T06:10:29;29.33;;;17.53;;
21905;SDS011;11117;48.644;9.006;2023-04-08T06:12:54;31.43;;;17.17;;
21905;SDS011;11117;48.644;9.006;2023-04-08T06:15:20;30.47;;;16.43;;
21905;SDS011;11117;48.644;9.006;2023-04-08T06:17:46;28.27;;;16.43;;
21905;SDS011;11117;48.644;9.006;2023-04-08T06:20:11;30.63;;;18.13;;
21905;SDS011;11117;48.644;9.006;2023-04-08T06:22:37;28.37;;;17.73;;
21905;SDS011;11117;48.644;9.006;2023-04-08T06:25:02;27.70;;;17.10;;
21905;SDS011;11117;48.644;9.006;2023-04-08T06:27:28;27.63;;;16.43;;
21905;SDS011;11117;48.644;9.006;2023-04-08T06:29:54;23.77;;;15.00;;
21905;SDS011;11117;48.644;9.006;2023-04-08T06:32:20;22.00;;;13.63;;
21905;SDS011;11117;48.644;9.006;2023-04-08T06:34:46;22.07;;;13.57;;
21905;SDS011;11117;48.644;9.006;2023-04-08T06:37:12;29.43;;;17.33;;
21905;SDS011;11117;48.644;9.006;2023-04-08T06:39:37;24.77;;;14.20;;
21905;SDS011;11117;48.644;9.006;2023-04-08T06:42:03;25.93;;;15.60;;
21905;SDS011;11117;48.644;9.006;2023-04-08T06:44:29;21.33;;;13.20;;
21905;SDS011;11117;48.644;9.006;2023-04-08T06:46:54;20.27;;;12.13;;
21905;SDS011;11117;48.644;9.006;2023-04-08T06:49:20;20.23;;;12.67;;
21905;SDS011;11117;48.644;9.006;2023-04-08T06:51:45;30.73;;;14.27;;
21905;SDS011;11117;48.644;9.006;2023-04-08T06:54:12;19.57;;;12.93;;
21905;SDS011;11117;48.644;9.006;2023-04-08T06:56:38;24.13;;;12.33;;
21905;SDS011;11117;48.644;9.006;2023-04-08T06:59:03;18.50;;;12.23;;
21905;SDS011;11117;48.644;9.006;2023-04-08T07:01:29;21.00;;;13.23;;
21905;SDS011;11117;48.644;9.006;2023-04-08T07:03:55;21.53;;;14.53;;
21905;SDS011;11117;48.644;9.006;2023-04-08T07:06:20;20.10;;;12.73;;
21905;SDS011;11117;48.644;9.006;2023-04-08T07:08:46;18.83;;;12.67;;
21905;SDS011;11117;48.644;9.006;2023-04-08T07:11:11;20.00;;;13.43;;
21905;SDS011;11117;48.644;9.006;2023-04-08T07:13:37;17.83;;;12.53;;
21905;SDS011;11117;48.644;9.006;2023-04-08T07:16:02;17.70;;;12.40;;
21905;SDS011;11117;48.644;9.006;2023-04-08T07:18:28;22.67;;;12.40;;
21905;SDS011;11117;48.644;9.006;2023-04-08T07:20:53;18.30;;;12.33;;
21905;SDS011;11117;48.644;9.006;2023-04-08T07:23:19;17.73;;;13.33;;
21905;SDS011;11117;48.644;9.006;2023-04-08T07:25:45;17.53;;;12.80;;
21905;SDS011;11117;48.644;9.006;2023-04-08T07:28:11;33.87;;;13.87;;
21905;SDS011;11117;48.644;9.006;2023-04-08T07:30:37;13.70;;;7.93;;
21905;SDS011;11117;48.644;9.006;2023-04-08T07:33:02;13.20;;;9.20;;
21905;SDS011;11117;48.644;9.006;2023-04-08T07:35:28;15.37;;;10.17;;
21905;SDS011;11117;48.644;9.006;2023-04-08T07:37:53;15.83;;;9.93;;
21905;SDS011;11117;48.644;9.006;2023-04-08T07:40:19;13.57;;;9.40;;
21905;SDS011;11117;48.644;9.006;2023-04-08T07:42:45;14.80;;;9.67;;
21905;SDS011;11117;48.644;9.006;2023-04-08T07:45:11;21.20;;;10.33;;
21905;SDS011;11117;48.644;9.006;2023-04-08T07:47:36;16.43;;;10.00;;
21905;SDS011;11117;48.644;9.006;2023-04-08T07:50:04;15.80;;;10.70;;
21905;SDS011;11117;48.644;9.006;2023-04-08T07:52:31;16.97;;;10.23;;
21905;SDS011;11117;48.644;9.006;2023-04-08T07:54:56;16.07;;;10.80;;
21905;SDS011;11117;48.644;9.006;2023-04-08T07:57:22;18.50;;;10.97;;
21905;SDS011;11117;48.644;9.006;2023-04-08T07:59:47;14.37;;;9.30;;
21905;SDS011;11117;48.644;9.006;2023-04-08T08:02:13;14.40;;;9.47;;
21905;SDS011;11117;48.644;9.006;2023-04-08T08:04:38;14.60;;;10.43;;
21905;SDS011;11117;48.644;9.006;2023-04-08T08:07:04;18.80;;;8.67;;
21905;SDS011;11117;48.644;9.006;2023-04-08T08:09:30;15.77;;;9.70;;
21905;SDS011;11117;48.644;9.006;2023-04-08T08:11:55;12.70;;;8.70;;
21905;SDS011;11117;48.644;9.006;2023-04-08T08:14:21;14.07;;;9.70;;
21905;SDS011;11117;48.644;9.006;2023-04-08T08:16:46;15.27;;;10.70;;
21905;SDS011;11117;48.644;9.006;2023-04-08T08:19:13;17.07;;;9.80;;
21905;SDS011;11117;48.644;9.006;2023-04-08T08:21:39;16.43;;;11.03;;
21905;SDS011;11117;48.644;9.006;2023-04-08T08:24:05;13.70;;;10.47;;
21905;SDS011;11117;48.644;9.006;2023-04-08T08:26:30;17.17;;;10.20;;
21905;SDS011;11117;48.644;9.006;2023-04-08T08:28:58;15.33;;;10.57;;
21905;SDS011;11117;48.644;9.006;2023-04-08T08:31:23;15.77;;;10.70;;
21905;SDS011;11117;48.644;9.006;2023-04-08T08:33:49;16.13;;;10.70;;
21905;SDS011;11117;48.644;9.006;2023-04-08T08:36:14;13.20;;;9.30;;
21905;SDS011;11117;48.644;9.006;2023-04-08T08:38:40;17.83;;;10.10;;
21905;SDS011;11117;48.644;9.006;2023-04-08T08:41:05;16.47;;;10.33;;
21905;SDS011;11117;48.644;9.006;2023-04-08T08:43:31;19.17;;;11.73;;
21905;SDS011;11117;48.644;9.006;2023-04-08T08:45:57;17.27;;;11.47;;
21905;SDS011;11117;48.644;9.006;2023-04-08T08:48:23;17.83;;;10.50;;
21905;SDS011;11117;48.644;9.006;2023-04-08T08:50:49;18.00;;;11.03;;
21905;SDS011;11117;48.644;9.006;2023-04-08T08:53:15;16.63;;;12.30;;
21905;SDS011;11117;48.644;9.006;2023-04-08T08:55:41;16.17;;;12.13;;
21905;SDS011;11117;48.644;9.006;2023-04-08T08:58:06;21.93;;;11.73;;
21905;SDS011;11117;48.644;9.006;2023-04-08T09:00:35;16.93;;;10.50;;
21905;SDS011;11117;48.644;9.006;2023-04-08T09:05:59;16.30;;;11.13;;
21905;SDS011;11117;48.644;9.006;2023-04-08T09:08:35;16.27;;;11.50;;
21905;SDS011;11117;48.644;9.006;2023-04-08T09:11:12;15.03;;;10.47;;
21905;SDS011;11117;48.644;9.006;2023-04-08T09:13:42;17.00;;;12.60;;
21905;SDS011;11117;48.644;9.006;2023-04-08T09:16:12;18.50;;;12.30;;
21905;SDS011;11117;48.644;9.006;2023-04-08T09:18:39;16.67;;;11.47;;
21905;SDS011;11117;48.644;9.006;2023-04-08T09:21:05;17.80;;;12.13;;
21905;SDS011;11117;48.644;9.006;2023-04-08T09:26:16;18.43;;;12.63;;
21905;SDS011;11117;48.644;9.006;2023-04-08T09:28:44;20.03;;;13.53;;
21905;SDS011;11117;48.644;9.006;2023-04-08T09:31:32;18.40;;;12.60;;
21905;SDS011;11117;48.644;9.006;2023-04-08T09:34:15;18.80;;;13.13;;
21905;SDS011;11117;48.644;9.006;2023-04-08T09:36:41;20.13;;;13.63;;
21905;SDS011;11117;48.644;9.006;2023-04-08T09:39:08;17.23;;;12.90;;
21905;SDS011;11117;48.644;9.006;2023-04-08T09:41:34;18.43;;;12.50;;
21905;SDS011;11117;48.644;9.006;2023-04-08T09:44:04;19.80;;;13.70;;
21905;SDS011;11117;48.644;9.006;2023-04-08T09:46:32;21.73;;;13.43;;
21905;SDS011;11117;48.644;9.006;2023-04-08T09:49:37;22.10;;;14.17;;
21905;SDS011;11117;48.644;9.006;2023-04-08T09:52:07;18.90;;;13.67;;
21905;SDS011;11117;48.644;9.006;2023-04-08T09:57:23;27.77;;;15.90;;
21905;SDS011;11117;48.644;9.006;2023-04-08T10:00:04;18.77;;;12.17;;
21905;SDS011;11117;48.644;9.006;2023-04-08T10:05:23;20.50;;;13.47;;
21905;SDS011;11117;48.644;9.006;2023-04-08T10:07:49;18.63;;;13.37;;
21905;SDS011;11117;48.644;9.006;2023-04-08T10:10:15;16.77;;;13.33;;
21905;SDS011;11117;48.644;9.006;2023-04-08T10:12:41;18.83;;;13.53;;
21905;SDS011;11117;48.644;9.006;2023-04-08T10:17:49;16.70;;;12.03;;
21905;SDS011;11117;48.644;9.006;2023-04-08T10:22:59;19.50;;;13.20;;
21905;SDS011;11117;48.644;9.006;2023-04-08T10:30:45;19.17;;;13.37;;
21905;SDS011;11117;48.644;9.006;2023-04-08T10:33:18;19.83;;;12.43;;
21905;SDS011;11117;48.644;9.006;2023-04-08T10:36:00;17.97;;;12.90;;
21905;SDS011;11117;48.644;9.006;2023-04-08T10:38:31;21.37;;;14.03;;
21905;SDS011;11117;48.644;9.006;2023-04-08T10:40:57;19.70;;;13.70;;
21905;SDS011;11117;48.644;9.006;2023-04-08T10:43:22;21.20;;;12.97;;
21905;SDS011;11117;48.644;9.006;2023-04-08T10:45:48;19.33;;;12.60;;
21905;SDS011;11117;48.644;9.006;2023-04-08T10:48:20;18.07;;;13.87;;
21905;SDS011;11117;48.644;9.006;2023-04-08T10:50:51;20.13;;;11.90;;
21905;SDS011;11117;48.644;9.006;2023-04-08T10:53:17;18.60;;;13.30;;
21905;SDS011;11117;48.644;9.006;2023-04-08T10:55:42;19.60;;;14.07;;
21905;SDS011;11117;48.644;9.006;2023-04-08T10:58:08;17.97;;;13.07;;
21905;SDS011;11117;48.644;9.006;2023-04-08T11:00:35;20.50;;;13.83;;
21905;SDS011;11117;48.644;9.006;2023-04-08T11:03:02;18.07;;;13.13;;
21905;SDS011;11117;48.644;9.006;2023-04-08T11:05:29;20.47;;;14.07;;
21905;SDS011;11117;48.644;9.006;2023-04-08T11:07:56;20.53;;;13.90;;
21905;SDS011;11117;48.644;9.006;2023-04-08T11:10:22;20.03;;;14.47;;
21905;SDS011;11117;48.644;9.006;2023-04-08T11:12:48;21.10;;;15.97;;
21905;SDS011;11117;48.644;9.006;2023-04-08T11:15:14;21.83;;;14.63;;
21905;SDS011;11117;48.644;9.006;2023-04-08T11:17:39;22.03;;;15.43;;
21905;SDS011;11117;48.644;9.006;2023-04-08T11:20:06;19.10;;;14.77;;
21905;SDS011;11117;48.644;9.006;2023-04-08T11:22:32;21.30;;;15.37;;
21905;SDS011;11117;48.644;9.006;2023-04-08T11:24:59;21.67;;;15.17;;
21905;SDS011;11117;48.644;9.006;2023-04-08T11:27:25;21.27;;;14.37;;
21905;SDS011;11117;48.644;9.006;2023-04-08T11:29:54;21.63;;;15.23;;
21905;SDS011;11117;48.644;9.006;2023-04-08T11:32:21;20.70;;;13.73;;
21905;SDS011;11117;48.644;9.006;2023-04-08T11:34:47;19.87;;;15.43;;
21905;SDS011;11117;48.644;9.006;2023-04-08T11:37:14;21.03;;;15.50;;
21905;SDS011;11117;48.644;9.006;2023-04-08T11:39:42;22.20;;;14.97;;
21905;SDS011;11117;48.644;9.006;2023-04-08T11:42:09;22.20;;;15.80;;
21905;SDS011;11117;48.644;9.006;2023-04-08T11:44:50;20.97;;;15.10;;
21905;SDS011;11117;48.644;9.006;2023-04-08T11:47:16;24.40;;;16.20;;
21905;SDS011;11117;48.644;9.006;2023-04-08T11:49:42;23.63;;;16.00;;
21905;SDS011;11117;48.644;9.006;2023-04-08T11:52:09;21.47;;;14.17;;
21905;SDS011;11117;48.644;9.006;2023-04-08T11:54:39;23.87;;;16.60;;
21905;SDS011;11117;48.644;9.006;2023-04-08T11:57:05;21.67;;;13.67;;
21905;SDS011;11117;48.644;9.006;2023-04-08T11:59:31;22.77;;;16.60;;
21905;SDS011;11117;48.644;9.006;2023-04-08T12:01:57;22.77;;;14.40;;
21905;SDS011;11117;48.644;9.006;2023-04-08T12:04:22;24.13;;;16.93;;
21905;SDS011;11117;48.644;9.006;2023-04-08T12:06:48;25.77;;;15.63;;
21905;SDS011;11117;48.644;9.006;2023-04-08T12:09:15;23.40;;;15.60;;
21905;SDS011;11117;48.644;9.006;2023-04-08T12:11:40;22.07;;;15.37;;
21905;SDS011;11117;48.644;9.006;2023-04-08T12:14:06;21.47;;;15.33;;
21905;SDS011;11117;48.644;9.006;2023-04-08T12:16:32;23.57;;;14.90;;
21905;SDS011;11117;48.644;9.006;2023-04-08T12:18:57;24.70;;;13.03;;
21905;SDS011;11117;48.644;9.006;2023-04-08T12:21:23;23.93;;;14.77;;
21905;SDS011;11117;48.644;9.006;2023-04-08T12:23:49;23.53;;;15.83;;
21905;SDS011;11117;48.644;9.006;2023-04-08T12:26:14;24.57;;;15.50;;
21905;SDS011;11117;48.644;9.006;2023-04-08T12:28:40;22.07;;;15.13;;
21905;SDS011;11117;48.644;9.006;2023-04-08T12:31:05;20.80;;;15.37;;
21905;SDS011;11117;48.644;9.006;2023-04-08T12:33:31;20.40;;;15.13;;
21905;SDS011;11117;48.644;9.006;2023-04-08T12:35:56;19.73;;;14.53;;
21905;SDS011;11117;48.644;9.006;2023-04-08T12:38:22;20.57;;;15.20;;
21905;SDS011;11117;48.644;9.006;2023-04-08T12:40:48;21.20;;;14.47;;
21905;SDS011;11117;48.644;9.006;2023-04-08T12:43:13;21.87;;;14.67;;
21905;SDS011;11117;48.644;9.006;2023-04-08T12:45:39;19.17;;;14.67;;
21905;SDS011;11117;48.644;9.006;2023-04-08T12:48:04;23.87;;;14.20;;
21905;SDS011;11117;48.644;9.006;2023-04-08T12:50:30;20.67;;;14.43;;
21905;SDS011;11117;48.644;9.006;2023-04-08T12:52:55;19.77;;;13.27;;
21905;SDS011;11117;48.644;9.006;2023-04-08T12:55:21;21.87;;;13.53;;
21905;SDS011;11117;48.644;9.006;2023-04-08T12:57:46;21.13;;;14.07;;
21905;SDS011;11117;48.644;9.006;2023-04-08T13:00:12;18.03;;;10.90;;
21905;SDS011;11117;48.644;9.006;2023-04-08T13:02:38;20.40;;;15.47;;
21905;SDS011;11117;48.644;9.006;2023-04-08T13:05:03;20.33;;;15.17;;
21905;SDS011;11117;48.644;9.006;2023-04-08T13:07:29;22.63;;;15.40;;
21905;SDS011;11117;48.644;9.006;2023-04-08T13:09:55;22.80;;;15.83;;
21905;SDS011;11117;48.644;9.006;2023-04-08T13:12:20;20.70;;;13.67;;
21905;SDS011;11117;48.644;9.006;2023-04-08T13:14:46;23.10;;;15.93;;
21905;SDS011;11117;48.644;9.006;2023-04-08T13:17:11;24.10;;;16.03;;
21905;SDS011;11117;48.644;9.006;2023-04-08T13:19:37;25.03;;;14.60;;
21905;SDS011;11117;48.644;9.006;2023-04-08T13:22:05;21.23;;;15.80;;
21905;SDS011;11117;48.644;9.006;2023-04-08T13:24:31;22.63;;;16.53;;
21905;SDS011;11117;48.644;9.006;2023-04-08T13:26:56;24.23;;;15.90;;
21905;SDS011;11117;48.644;9.006;2023-04-08T13:29:22;28.13;;;16.60;;
21905;SDS011;11117;48.644;9.006;2023-04-08T13:31:47;24.40;;;16.47;;
21905;SDS011;11117;48.644;9.006;2023-04-08T13:34:14;20.43;;;15.53;;
21905;SDS011;11117;48.644;9.006;2023-04-08T13:36:39;22.27;;;15.93;;
21905;SDS011;11117;48.644;9.006;2023-04-08T13:39:05;25.33;;;15.67;;
21905;SDS011;11117;48.644;9.006;2023-04-08T13:41:30;22.20;;;15.60;;
21905;SDS011;11117;48.644;9.006;2023-04-08T13:43:56;24.23;;;15.70;;
21905;SDS011;11117;48.644;9.006;2023-04-08T13:46:21;20.83;;;14.90;;
21905;SDS011;11117;48.644;9.006;2023-04-08T13:48:50;20.87;;;15.37;;
21905;SDS011;11117;48.644;9.006;2023-04-08T13:51:18;21.87;;;15.63;;
21905;SDS011;11117;48.644;9.006;2023-04-08T13:53:44;20.60;;;15.90;;
21905;SDS011;11117;48.644;9.006;2023-04-08T13:56:09;20.63;;;15.47;;
21905;SDS011;11117;48.644;9.006;2023-04-08T13:58:35;20.63;;;15.07;;
21905;SDS011;11117;48.644;9.006;2023-04-08T14:01:01;22.77;;;16.40;;
21905;SDS011;11117;48.644;9.006;2023-04-08T14:03:26;19.97;;;15.37;;
21905;SDS011;11117;48.644;9.006;2023-04-08T14:05:52;22.00;;;15.47;;
21905;SDS011;11117;48.644;9.006;2023-04-08T14:08:17;27.07;;;16.57;;
21905;SDS011;11117;48.644;9.006;2023-04-08T14:10:43;22.23;;;15.30;;
21905;SDS011;11117;48.644;9.006;2023-04-08T14:13:09;21.20;;;15.63;;
21905;SDS011;11117;48.644;9.006;2023-04-08T14:15:34;23.27;;;15.27;;
21905;SDS011;11117;48.644;9.006;2023-04-08T14:18:00;22.57;;;15.87;;
21905;SDS011;11117;48.644;9.006;2023-04-08T14:20:25;21.20;;;15.60;;
21905;SDS011;11117;48.644;9.006;2023-04-08T14:22:51;20.90;;;15.23;;
21905;SDS011;11117;48.644;9.006;2023-04-08T14:25:16;22.47;;;15.80;;
21905;SDS011;11117;48.644;9.006;2023-04-08T14:27:42;19.83;;;15.47;;
21905;SDS011;11117;48.644;9.006;2023-04-08T14:30:07;20.30;;;14.90;;
21905;SDS011;11117;48.644;9.006;2023-04-08T14:32:33;21.47;;;15.03;;
21905;SDS011;11117;48.644;9.006;2023-04-08T14:34:58;23.03;;;15.33;;
21905;SDS011;11117;48.644;9.006;2023-04-08T14:37:24;18.80;;;12.83;;
21905;SDS011;11117;48.644;9.006;2023-04-08T14:39:49;19.63;;;14.90;;